createdAt,value
2017-09-09T00:01:36.191Z,66.50
2017-09-09T00:04:05.192Z,66.50
2017-09-09T00:06:32.701Z,66.60
2017-09-09T00:09:00.199Z,66.70
2017-09-09T00:11:27.720Z,66.80
2017-09-09T00:13:55.616Z,66.90
2017-09-09T00:16:23.915Z,66.70
2017-09-09T00:18:51.823Z,66.90
2017-09-09T00:21:19.356Z,66.70
2017-09-09T00:23:46.855Z,66.80
2017-09-09T00:26:15.147Z,67.50
2017-09-09T00:28:42.656Z,66.90
2017-09-09T00:31:10.548Z,66.90
2017-09-09T00:33:38.055Z,66.70
2017-09-09T00:36:05.554Z,66.80
2017-09-09T00:38:33.820Z,66.80
2017-09-09T00:41:01.468Z,66.70
2017-09-09T00:43:29.395Z,66.60
2017-09-09T00:45:57.667Z,66.40
2017-09-09T00:48:26.693Z,66.20
2017-09-09T00:50:54.196Z,66.40
2017-09-09T00:53:21.735Z,66.60
2017-09-09T00:55:49.232Z,66.70
2017-09-09T00:58:16.754Z,66.80
2017-09-09T01:00:45.757Z,66.90
2017-09-09T01:03:13.279Z,67.10
2017-09-09T01:05:41.538Z,67.80
2017-09-09T01:08:09.038Z,67.20
2017-09-09T01:10:36.549Z,67.10
2017-09-09T01:13:04.835Z,67.00
2017-09-09T01:15:32.323Z,67.50
2017-09-09T01:17:59.819Z,67.60
2017-09-09T01:20:28.839Z,67.70
2017-09-09T01:22:56.332Z,67.50
2017-09-09T01:25:24.243Z,67.40
2017-09-09T01:27:52.512Z,67.40
2017-09-09T01:30:20.425Z,67.20
2017-09-09T01:32:47.930Z,67.10
2017-09-09T01:35:15.461Z,67.10
2017-09-09T01:37:42.975Z,67.00
2017-09-09T01:40:11.647Z,67.10
2017-09-09T01:42:39.552Z,66.90
2017-09-09T01:45:07.811Z,66.70
2017-09-09T01:47:36.071Z,66.60
2017-09-09T01:50:03.566Z,66.80
2017-09-09T01:52:31.836Z,66.90
2017-09-09T01:54:59.335Z,67.10
2017-09-09T01:57:27.603Z,67.90
2017-09-09T01:59:55.875Z,67.30
2017-09-09T02:02:24.147Z,67.40
2017-09-09T02:04:52.404Z,67.30
2017-09-09T02:07:19.912Z,67.50
2017-09-09T02:09:48.187Z,67.50
2017-09-09T02:12:15.719Z,67.40
2017-09-09T02:14:44.731Z,67.40
2017-09-09T02:17:12.275Z,67.40
2017-09-09T02:19:40.915Z,67.40
2017-09-09T02:22:08.439Z,67.30
2017-09-09T02:24:37.105Z,67.50
2017-09-09T02:27:04.635Z,67.40
2017-09-09T02:29:32.143Z,67.40
2017-09-09T02:32:00.085Z,67.40
2017-09-09T02:34:27.591Z,67.30
2017-09-09T02:36:55.880Z,67.20
2017-09-09T02:39:23.402Z,67.30
2017-09-09T02:41:50.924Z,67.30
2017-09-09T02:44:18.441Z,67.40
2017-09-09T02:46:46.358Z,67.60
2017-09-09T02:49:13.876Z,67.40
2017-09-09T02:51:41.800Z,67.30
2017-09-09T02:54:10.818Z,67.20
2017-09-09T02:56:38.729Z,67.10
2017-09-09T02:59:06.619Z,66.90
2017-09-09T03:01:35.279Z,66.80
2017-09-09T03:04:02.776Z,66.70
2017-09-09T03:06:31.800Z,66.60
2017-09-09T03:08:59.299Z,66.80
2017-09-09T03:11:26.851Z,66.80
2017-09-09T03:13:54.356Z,66.80
2017-09-09T03:16:22.639Z,67.60
2017-09-09T03:18:50.155Z,67.00
2017-09-09T03:21:18.072Z,67.10
2017-09-09T03:23:45.587Z,67.10
2017-09-09T03:26:13.910Z,68.10
2017-09-09T03:28:41.408Z,67.20
2017-09-09T03:31:08.940Z,67.10
2017-09-09T03:33:37.219Z,67.10
2017-09-09T03:36:04.749Z,67.40
2017-09-09T03:38:32.243Z,67.90
2017-09-09T03:41:00.898Z,68.30
2017-09-09T03:43:28.408Z,68.60
2017-09-09T03:45:55.932Z,68.70
2017-09-09T03:48:23.425Z,68.40
2017-09-09T03:50:51.728Z,69.10
2017-09-09T03:53:19.223Z,68.70
2017-09-09T03:55:47.524Z,68.50
2017-09-09T03:58:15.055Z,68.40
2017-09-09T04:00:42.572Z,68.20
2017-09-09T04:05:38.927Z,67.90
2017-09-09T04:08:06.431Z,67.90
2017-09-09T04:10:35.075Z,67.90
2017-09-09T04:13:02.587Z,67.90
2017-09-09T04:15:31.621Z,67.90
2017-09-09T04:17:59.141Z,67.80
2017-09-09T04:20:26.635Z,67.80
2017-09-09T04:22:54.146Z,67.60
2017-09-09T04:25:21.646Z,67.70
2017-09-09T04:27:49.166Z,67.60
2017-09-09T04:30:16.666Z,67.70
2017-09-09T04:32:44.586Z,67.70
2017-09-09T04:35:12.863Z,67.80
2017-09-09T04:37:40.770Z,67.80
2017-09-09T04:40:08.284Z,67.80
2017-09-09T04:42:35.811Z,67.90
2017-09-09T04:45:03.306Z,67.90
2017-09-09T04:47:30.819Z,67.90
2017-09-09T04:49:58.312Z,67.90
2017-09-09T04:52:25.843Z,67.90
2017-09-09T04:54:54.336Z,67.80
2017-09-09T04:57:21.890Z,67.60
2017-09-09T04:59:50.179Z,67.70
2017-09-09T05:02:17.713Z,67.90
2017-09-09T05:04:49.060Z,67.80
2017-09-09T05:09:46.203Z,67.60
2017-09-09T05:14:43.412Z,67.80
2017-09-09T05:17:11.729Z,67.90
2017-09-09T05:19:39.624Z,68.00
2017-09-09T05:22:07.546Z,68.00
2017-09-09T05:24:35.050Z,68.20
2017-09-09T05:27:02.587Z,68.20
2017-09-09T05:29:30.091Z,68.30
2017-09-09T05:31:57.623Z,68.30
2017-09-09T05:34:25.132Z,68.80
2017-09-09T05:36:52.651Z,69.30
2017-09-09T05:39:20.855Z,69.50
2017-09-09T05:41:48.399Z,69.60
2017-09-09T05:44:15.964Z,69.70
2017-09-09T05:46:43.488Z,69.90
2017-09-09T05:49:11.002Z,69.80
2017-09-09T05:51:39.279Z,69.90
2017-09-09T05:54:06.781Z,70.00
2017-09-09T05:56:34.299Z,70.00
2017-09-09T05:59:01.822Z,69.90
2017-09-09T06:01:29.759Z,70.00
2017-09-09T06:03:57.653Z,69.70
2017-09-09T06:08:54.350Z,69.80
2017-09-09T06:11:22.272Z,70.20
2017-09-09T06:13:49.771Z,70.20
2017-09-09T06:16:18.835Z,70.50
2017-09-09T06:18:46.494Z,70.30
2017-09-09T06:21:14.750Z,70.50
2017-09-09T06:23:42.421Z,70.70
2017-09-09T06:26:09.920Z,70.80
2017-09-09T06:28:38.354Z,71.40
2017-09-09T06:31:06.010Z,71.40
2017-09-09T06:33:33.535Z,71.40
2017-09-09T06:36:01.436Z,71.20
2017-09-09T06:38:28.963Z,71.10
2017-09-09T06:40:57.236Z,71.20
2017-09-09T06:43:24.763Z,71.50
2017-09-09T06:45:52.259Z,71.30
2017-09-09T06:48:21.467Z,71.30
2017-09-09T06:50:49.775Z,71.40
2017-09-09T06:53:17.403Z,71.00
2017-09-09T06:55:45.071Z,71.10
2017-09-09T06:58:12.995Z,71.20
2017-09-09T07:00:40.507Z,71.40
2017-09-09T07:03:09.506Z,71.40
2017-09-09T07:05:38.259Z,71.10
2017-09-09T07:08:06.522Z,71.30
2017-09-09T07:10:34.795Z,71.50
2017-09-09T07:13:02.290Z,71.50
2017-09-09T07:15:29.807Z,71.50
2017-09-09T07:17:58.463Z,71.80
2017-09-09T07:20:26.876Z,72.80
2017-09-09T07:22:55.153Z,72.00
2017-09-09T07:25:22.709Z,71.60
2017-09-09T07:27:50.991Z,71.70
2017-09-09T07:30:18.541Z,71.70
2017-09-09T07:32:46.039Z,71.80
2017-09-09T07:35:14.315Z,72.50
2017-09-09T07:40:10.661Z,71.70
2017-09-09T07:42:39.665Z,72.00
2017-09-09T07:45:07.755Z,72.10
2017-09-09T07:47:35.412Z,71.90
2017-09-09T07:50:02.903Z,71.90
2017-09-09T07:52:30.791Z,71.50
2017-09-09T07:54:59.420Z,71.60
2017-09-09T07:57:27.495Z,71.50
2017-09-09T07:59:55.549Z,71.40
2017-09-09T08:04:52.067Z,71.50
2017-09-09T08:07:19.767Z,71.40
2017-09-09T08:09:47.417Z,71.60
2017-09-09T08:12:15.697Z,71.10
2017-09-09T08:14:43.191Z,71.20
2017-09-09T08:17:11.083Z,71.30
2017-09-09T08:19:39.739Z,71.50
2017-09-09T08:22:07.259Z,71.90
2017-09-09T08:27:03.747Z,71.10
2017-09-09T08:29:32.162Z,71.90
2017-09-09T08:32:00.055Z,71.40
2017-09-09T08:34:27.573Z,70.90
2017-09-09T08:36:55.135Z,71.20
2017-09-09T08:39:23.414Z,69.90
2017-09-09T08:41:50.963Z,69.80
2017-09-09T08:44:18.463Z,69.20
2017-09-09T08:46:46.812Z,68.90
2017-09-09T08:49:14.454Z,69.60
2017-09-09T08:51:42.121Z,70.20
2017-09-09T08:54:09.771Z,69.80
2017-09-09T08:56:37.267Z,69.90
2017-09-09T08:59:04.903Z,69.50
2017-09-09T09:01:32.827Z,69.40
2017-09-09T09:04:01.247Z,70.00
2017-09-09T09:06:29.314Z,68.90
2017-09-09T09:08:56.807Z,68.50
2017-09-09T09:11:24.403Z,68.10
2017-09-09T09:13:51.926Z,68.50
2017-09-09T09:16:20.189Z,69.00
2017-09-09T09:18:48.468Z,66.90
2017-09-09T09:21:15.970Z,66.70
2017-09-09T09:23:43.464Z,67.40
2017-09-09T09:26:10.964Z,66.40
2017-09-09T09:28:38.628Z,66.70
2017-09-09T09:31:06.291Z,66.00
2017-09-09T09:33:34.559Z,66.50
2017-09-09T09:36:02.056Z,66.00
2017-09-09T09:38:29.695Z,66.00
2017-09-09T09:40:57.351Z,65.60
2017-09-09T09:43:24.907Z,65.80
2017-09-09T09:45:52.416Z,65.40
2017-09-09T09:48:19.923Z,64.70
2017-09-09T09:50:47.821Z,64.80
2017-09-09T09:53:15.344Z,64.90
2017-09-09T09:55:42.853Z,64.90
2017-09-09T09:58:10.546Z,65.30
2017-09-09T10:00:38.043Z,65.00
2017-09-09T10:03:06.333Z,65.00
2017-09-09T10:05:35.355Z,63.80
2017-09-09T10:08:03.615Z,63.10
2017-09-09T10:10:31.702Z,63.20
2017-09-09T10:12:59.771Z,63.60
2017-09-09T10:15:27.424Z,64.10
2017-09-09T10:17:55.076Z,64.30
2017-09-09T10:20:22.758Z,64.30
2017-09-09T10:22:50.270Z,64.80
2017-09-09T10:25:22.053Z,65.30
2017-09-09T10:27:49.565Z,63.60
2017-09-09T10:37:43.779Z,63.70
2017-09-09T10:40:12.060Z,63.40
2017-09-09T10:42:39.579Z,63.00
2017-09-09T10:45:07.079Z,62.60
2017-09-09T10:47:34.710Z,63.00
2017-09-09T10:50:02.221Z,63.00
2017-09-09T10:52:30.697Z,63.20
2017-09-09T10:54:58.595Z,62.90
2017-09-09T10:57:26.131Z,63.70
2017-09-09T11:02:23.388Z,62.90
2017-09-09T11:04:51.050Z,61.70
2017-09-09T11:07:18.704Z,61.30
2017-09-09T11:09:46.207Z,61.80
2017-09-09T11:12:13.838Z,61.90
2017-09-09T11:14:41.728Z,61.70
2017-09-09T11:17:09.355Z,61.20
2017-09-09T11:19:37.319Z,61.20
2017-09-09T11:22:05.216Z,61.60
2017-09-09T11:24:32.852Z,62.00
2017-09-09T11:29:29.224Z,61.70
2017-09-09T11:31:57.875Z,61.40
2017-09-09T11:34:25.398Z,60.50
2017-09-09T11:36:52.895Z,61.50
2017-09-09T11:39:21.163Z,61.70
2017-09-09T11:41:48.782Z,61.70
2017-09-09T11:44:16.455Z,61.90
2017-09-09T11:46:43.951Z,62.60
2017-09-09T11:49:11.563Z,62.00
2017-09-09T11:51:39.063Z,61.80
2017-09-09T11:54:07.328Z,61.60
2017-09-09T11:56:34.936Z,61.50
2017-09-09T11:59:02.447Z,61.30
2017-09-09T12:01:30.378Z,61.40
2017-09-09T12:03:57.913Z,61.00
2017-09-09T12:06:25.811Z,61.60
2017-09-09T12:08:53.318Z,61.90
2017-09-09T12:11:21.715Z,62.70
2017-09-09T12:13:49.370Z,62.70
2017-09-09T12:16:17.031Z,63.10
2017-09-09T12:18:44.530Z,63.20
2017-09-09T12:21:13.167Z,63.00
2017-09-09T12:23:41.070Z,63.10
2017-09-09T12:26:09.340Z,63.20
2017-09-09T12:28:36.868Z,62.90
2017-09-09T12:31:04.369Z,62.90
2017-09-09T12:33:31.891Z,63.20
2017-09-09T12:35:59.399Z,63.00
2017-09-09T12:40:55.825Z,63.30
2017-09-09T12:43:24.477Z,62.90
2017-09-09T12:45:52.371Z,62.40
2017-09-09T12:48:21.027Z,62.80
2017-09-09T12:50:48.572Z,63.10
2017-09-09T12:53:16.203Z,63.40
2017-09-09T12:55:43.696Z,63.50
2017-09-09T12:58:11.191Z,63.30
2017-09-09T13:00:39.459Z,63.70
2017-09-09T13:03:07.864Z,62.60
2017-09-09T13:05:35.363Z,61.90
2017-09-09T13:08:02.855Z,62.30
2017-09-09T13:10:31.267Z,62.90
2017-09-09T13:12:58.896Z,61.60
2017-09-09T13:15:26.422Z,61.10
2017-09-09T13:17:54.032Z,61.20
2017-09-09T13:20:21.699Z,61.50
2017-09-09T13:22:49.191Z,62.20
2017-09-09T13:25:17.203Z,62.00
2017-09-09T13:27:44.719Z,61.40
2017-09-09T13:30:12.211Z,61.60
2017-09-09T13:32:40.844Z,61.70
2017-09-09T13:35:08.439Z,61.80
2017-09-09T13:37:35.935Z,62.00
2017-09-09T13:40:03.568Z,62.20
2017-09-09T13:42:32.051Z,62.40
2017-09-09T13:44:59.561Z,62.80
2017-09-09T13:47:27.955Z,62.30
2017-09-09T13:49:55.467Z,62.60
2017-09-09T13:52:23.100Z,62.90
2017-09-09T13:54:51.363Z,62.90
2017-09-09T13:57:19.431Z,63.10
2017-09-09T13:59:46.931Z,63.10
2017-09-09T14:02:15.203Z,63.20
2017-09-09T14:04:42.706Z,63.50
2017-09-09T14:07:10.211Z,63.80
2017-09-09T14:09:37.721Z,63.50
2017-09-09T14:12:05.231Z,63.60
2017-09-09T14:14:32.735Z,63.90
2017-09-09T14:17:00.245Z,64.00
2017-09-09T14:19:28.559Z,63.80
2017-09-09T14:21:56.453Z,63.90
2017-09-09T14:24:24.776Z,64.10
2017-09-09T14:26:53.178Z,64.20
2017-09-09T14:29:21.075Z,64.10
2017-09-09T14:31:48.572Z,64.20
2017-09-09T14:34:17.393Z,64.40
2017-09-09T14:36:45.046Z,64.60
2017-09-09T14:39:13.717Z,64.70
2017-09-09T14:41:41.223Z,64.80
2017-09-09T14:44:08.715Z,65.10
2017-09-09T14:46:38.023Z,65.20
2017-09-09T14:51:35.921Z,65.00
2017-09-09T14:54:03.590Z,64.80
2017-09-09T14:56:31.238Z,64.70
2017-09-09T14:58:58.735Z,64.70
2017-09-09T15:01:26.261Z,64.90
2017-09-09T15:03:53.763Z,65.10
2017-09-09T15:06:21.255Z,65.00
2017-09-09T15:08:48.895Z,65.20
2017-09-09T15:11:16.571Z,65.40
2017-09-09T15:13:44.079Z,65.40
2017-09-09T15:16:12.447Z,66.00
2017-09-09T15:18:39.953Z,65.30
2017-09-09T15:21:08.432Z,65.30
2017-09-09T15:23:36.345Z,65.60
2017-09-09T15:26:04.606Z,65.60
2017-09-09T15:28:32.232Z,65.60
2017-09-09T15:30:59.889Z,65.70
2017-09-09T15:33:27.531Z,65.70
2017-09-09T15:35:55.042Z,65.50
2017-09-09T15:38:22.644Z,65.50
2017-09-09T15:40:50.158Z,65.80
2017-09-09T15:43:17.683Z,65.90
2017-09-09T15:45:45.216Z,65.80
2017-09-09T15:48:13.855Z,66.00
2017-09-09T15:50:41.547Z,66.10
2017-09-09T15:53:09.044Z,66.10
2017-09-09T15:55:36.559Z,66.20
2017-09-09T15:58:04.052Z,66.20
2017-09-09T16:00:31.575Z,66.10
2017-09-09T16:02:59.071Z,66.60
2017-09-09T16:05:27.094Z,66.80
2017-09-09T16:07:54.602Z,67.00
2017-09-09T16:10:22.099Z,67.10
2017-09-09T16:12:49.663Z,67.30
2017-09-09T16:15:17.231Z,67.40
2017-09-09T16:17:45.490Z,67.30
2017-09-09T16:20:13.026Z,67.20
2017-09-09T16:22:40.527Z,67.20
2017-09-09T16:25:09.590Z,67.20
2017-09-09T16:27:37.251Z,67.00
2017-09-09T16:30:04.776Z,67.20
2017-09-09T16:32:32.674Z,67.30
2017-09-09T16:35:00.172Z,67.00
2017-09-09T16:37:28.548Z,67.10
2017-09-09T16:39:56.168Z,67.40
2017-09-09T16:42:23.689Z,67.60
2017-09-09T16:44:51.191Z,67.80
2017-09-09T16:47:18.735Z,68.10
2017-09-09T16:49:46.238Z,68.10
2017-09-09T16:52:13.745Z,68.30
2017-09-09T16:59:40.500Z,68.20
2017-09-09T17:02:08.017Z,68.10
2017-09-09T17:04:36.656Z,68.10
2017-09-09T17:07:04.304Z,68.00
2017-09-09T17:09:31.807Z,68.20
2017-09-09T17:11:59.303Z,68.20
2017-09-09T17:16:55.691Z,68.20
2017-09-09T17:19:23.607Z,68.30
2017-09-09T17:21:51.112Z,68.20
2017-09-09T17:24:18.747Z,68.20
2017-09-09T17:26:46.647Z,68.00
2017-09-09T17:29:14.170Z,68.00
2017-09-09T17:31:43.182Z,68.00
2017-09-09T17:34:10.679Z,68.00
2017-09-09T17:36:38.189Z,68.10
2017-09-09T17:39:06.461Z,67.90
2017-09-09T17:41:33.959Z,67.70
2017-09-09T17:44:01.852Z,67.80
2017-09-09T17:46:29.351Z,67.80
2017-09-09T17:48:56.942Z,67.90
2017-09-09T17:51:24.602Z,67.80
2017-09-09T17:53:52.689Z,67.80
2017-09-09T17:56:20.335Z,67.80
2017-09-09T17:58:47.950Z,67.80
2017-09-09T18:01:15.662Z,67.70
2017-09-09T18:03:43.336Z,67.70
2017-09-09T18:06:10.920Z,67.70
2017-09-09T18:08:38.431Z,67.60
2017-09-09T18:11:06.328Z,67.60
2017-09-09T18:13:33.823Z,67.50
2017-09-09T18:16:02.823Z,67.50
2017-09-09T18:18:31.087Z,67.50
2017-09-09T18:20:58.763Z,67.50
2017-09-09T18:23:26.419Z,67.50
2017-09-09T18:25:53.927Z,67.40
2017-09-09T18:28:21.424Z,67.40
2017-09-09T18:30:48.947Z,67.30
2017-09-09T18:33:17.264Z,67.30
2017-09-09T18:35:45.155Z,67.30
2017-09-09T18:38:12.673Z,67.30
2017-09-09T18:40:40.652Z,67.10
2017-09-09T18:48:05.903Z,67.00
2017-09-09T18:50:33.535Z,67.20
2017-09-09T18:53:01.226Z,67.30
2017-09-09T18:55:29.483Z,67.30
2017-09-09T18:57:56.979Z,67.40
2017-09-09T19:00:24.471Z,67.40
2017-09-09T19:02:51.984Z,67.40
2017-09-09T19:05:19.486Z,67.00
2017-09-09T19:07:47.159Z,67.10
2017-09-09T19:10:14.812Z,67.10
2017-09-09T19:12:42.712Z,67.30
2017-09-09T19:15:10.226Z,67.40
2017-09-09T19:17:38.487Z,67.60
2017-09-09T19:20:06.055Z,67.70
2017-09-09T19:22:33.712Z,68.00
2017-09-09T19:25:01.238Z,68.00
2017-09-09T19:27:29.884Z,68.10
2017-09-09T19:29:57.508Z,68.30
2017-09-09T19:32:25.171Z,68.20
2017-09-09T19:34:52.834Z,68.20
2017-09-09T19:37:20.331Z,68.20
2017-09-09T19:39:48.227Z,68.30
2017-09-09T19:42:16.508Z,68.80
2017-09-09T19:44:44.399Z,68.60
2017-09-09T19:47:11.955Z,68.80
2017-09-09T19:49:39.447Z,69.00
2017-09-09T19:52:06.939Z,69.20
2017-09-09T19:54:34.435Z,69.30
2017-09-09T19:57:01.932Z,69.50
2017-09-09T19:59:29.433Z,69.60
2017-09-09T20:01:58.167Z,70.00
2017-09-09T20:04:26.432Z,70.80
2017-09-09T20:06:54.739Z,70.40
2017-09-09T20:09:22.254Z,70.00
2017-09-09T20:11:50.171Z,70.40
2017-09-09T20:14:17.848Z,70.50
2017-09-09T20:16:45.411Z,70.40
2017-09-09T20:19:13.014Z,70.60
2017-09-09T20:21:40.904Z,70.60
2017-09-09T20:24:08.403Z,70.40
2017-09-09T20:26:37.056Z,70.30
2017-09-09T20:29:04.587Z,70.60
2017-09-09T20:31:32.243Z,70.70
2017-09-09T20:33:59.913Z,70.80
2017-09-09T20:36:27.587Z,70.90
2017-09-09T20:38:55.879Z,71.00
2017-09-09T20:41:23.371Z,71.00
2017-09-09T20:43:52.371Z,71.00
2017-09-09T20:46:20.650Z,70.90
2017-09-09T20:48:48.556Z,70.80
2017-09-09T20:51:16.090Z,70.80
2017-09-09T20:53:43.607Z,71.00
2017-09-09T20:56:11.103Z,71.40
2017-09-09T20:58:38.623Z,71.40
2017-09-09T21:01:06.895Z,71.80
2017-09-09T21:03:35.175Z,71.70
2017-09-09T21:06:02.701Z,71.40
2017-09-09T21:08:30.191Z,71.50
2017-09-09T21:10:57.993Z,71.30
2017-09-09T21:13:25.715Z,71.20
2017-09-09T21:15:53.223Z,71.20
2017-09-09T21:18:20.791Z,71.30
2017-09-09T21:20:48.283Z,71.20
2017-09-09T21:23:15.807Z,71.40
2017-09-09T21:25:44.091Z,72.30
2017-09-09T21:28:12.389Z,72.30
2017-09-09T21:30:39.956Z,71.70
2017-09-09T21:35:36.339Z,71.80
2017-09-09T21:38:04.619Z,71.70
2017-09-09T21:40:32.130Z,71.90
2017-09-09T21:43:00.052Z,71.90
2017-09-09T21:45:27.548Z,71.90
2017-09-09T21:47:55.076Z,71.70
2017-09-09T21:50:22.580Z,71.70
2017-09-09T21:52:50.503Z,71.60
2017-09-09T21:55:18.023Z,71.80
2017-09-09T21:57:45.539Z,71.60
2017-09-09T22:00:13.038Z,71.60
2017-09-09T22:02:41.343Z,72.10
2017-09-09T22:05:09.239Z,71.60
2017-09-09T22:07:37.132Z,71.20
2017-09-09T22:10:05.414Z,71.30
2017-09-09T22:12:33.011Z,71.20
2017-09-09T22:15:00.674Z,71.20
2017-09-09T22:17:28.333Z,71.20
2017-09-09T22:19:55.845Z,71.20
2017-09-09T22:22:24.678Z,71.20
2017-09-09T22:24:52.192Z,71.20
2017-09-09T22:27:20.472Z,70.90
2017-09-09T22:29:48.751Z,71.60
2017-09-09T22:32:17.034Z,71.70
2017-09-09T22:34:44.539Z,71.20
2017-09-09T22:37:12.030Z,71.20
2017-09-09T22:39:40.306Z,71.10
2017-09-09T22:42:08.577Z,71.00
2017-09-09T22:44:36.072Z,71.10
2017-09-09T22:47:04.707Z,71.20
2017-09-09T22:49:32.303Z,71.20
2017-09-09T22:52:00.195Z,71.30
2017-09-09T22:54:28.098Z,71.10
2017-09-09T22:56:56.738Z,70.90
2017-09-09T22:59:24.231Z,71.10
2017-09-09T23:01:51.726Z,71.00
2017-09-09T23:04:19.346Z,71.40
2017-09-09T23:06:46.843Z,71.50
2017-09-09T23:09:15.862Z,71.70
2017-09-09T23:11:43.379Z,71.90
2017-09-09T23:21:37.850Z,71.40
2017-09-09T23:24:06.575Z,71.50
2017-09-09T23:26:34.067Z,71.30
2017-09-09T23:29:01.684Z,71.70
2017-09-09T23:31:29.347Z,71.80
2017-09-09T23:33:57.007Z,71.80
2017-09-09T23:36:24.499Z,71.90
2017-09-09T23:38:52.013Z,72.10
2017-09-09T23:41:19.510Z,72.20
2017-09-09T23:43:47.027Z,72.50
2017-09-09T23:46:15.095Z,72.30
2017-09-09T23:48:42.716Z,72.10
2017-09-09T23:51:10.979Z,72.70
2017-09-09T23:53:40.027Z,72.20
2017-09-09T23:56:07.523Z,72.00
2017-09-09T23:58:35.040Z,72.30
